Time;durP1;ratioP1;P1;durP2;ratioP2;P2;SDS_P1;SDS_P2;PMS_P1;PMS_P2;Temp;Humidity;BMP_temperature;BMP_pressure;BME280_temperature;BME280_humidity;BME280_pressure;Samples;Min_cycle;Max_cycle;Signal;HPM_P1;HPM_P2
2021/01/04 00:00:36;;;;;;;9.20;7.93;;;27.50;58.00;;;;;;4801328;29;20242;-55
2021/01/04 00:03:29;;;;;;;12.57;8.90;;;27.50;58.10;;;;;;4805637;29;20253;-56
2021/01/04 00:06:05;;;;;;;9.27;8.45;;;27.50;58.30;;;;;;4788409;29;20246;-52
2021/01/04 00:08:55;;;;;;;10.82;8.10;;;27.50;58.50;;;;;;4757604;29;20250;-54
2021/01/04 00:11:45;;;;;;;9.00;8.18;;;27.50;58.30;;;;;;4758527;29;20701;-52
2021/01/04 00:14:34;;;;;;;9.25;8.25;;;27.50;58.30;;;;;;4792681;29;20622;-55
2021/01/04 00:17:09;;;;;;;9.20;8.30;;;27.50;58.30;;;;;;4766220;29;20292;-53
2021/01/04 00:19:42;;;;;;;10.35;8.07;;;27.60;58.40;;;;;;4782785;29;20242;-53
2021/01/04 00:22:17;;;;;;;14.45;8.13;;;27.50;58.50;;;;;;4777502;29;20314;-49
2021/01/04 00:24:50;;;;;;;8.98;8.07;;;27.50;58.50;;;;;;4821562;29;20236;-52
2021/01/04 00:27:26;;;;;;;12.48;8.15;;;27.50;58.60;;;;;;4823947;29;20245;-51
2021/01/04 00:29:59;;;;;;;8.30;7.55;;;27.50;58.70;;;;;;4842013;29;20246;-51
2021/01/04 00:32:34;;;;;;;11.07;8.30;;;27.50;58.80;;;;;;4832527;28;20251;-50
2021/01/04 00:35:13;;;;;;;11.30;9.30;;;27.50;58.90;;;;;;4829718;29;20229;-50
2021/01/04 00:38:18;;;;;;;12.43;11.15;;;27.60;59.10;;;;;;4848684;29;20233;-54
2021/01/04 00:40:59;;;;;;;13.55;12.07;;;27.60;59.10;;;;;;4876381;28;20249;-52
2021/01/04 00:43:34;;;;;;;10.27;9.18;;;27.60;59.00;;;;;;4903919;28;20262;-54
2021/01/04 00:46:05;;;;;;;11.23;9.52;;;27.60;58.90;;;;;;4908426;28;20231;-51
2021/01/04 00:48:38;;;;;;;11.07;9.88;;;27.60;59.00;;;;;;4907746;28;20226;-52
2021/01/04 00:51:35;;;;;;;9.93;8.93;;;27.70;59.10;;;;;;4901039;28;20706;-51
2021/01/04 00:54:21;;;;;;;9.35;7.85;;;27.70;59.10;;;;;;4903367;28;20691;-55
2021/01/04 00:56:58;;;;;;;9.52;8.38;;;27.70;59.00;;;;;;4908793;28;20250;-51
2021/01/04 00:59:33;;;;;;;12.30;8.23;;;27.70;58.90;;;;;;4908201;28;20245;-50
2021/01/04 01:02:38;;;;;;;8.43;7.55;;;27.70;58.90;;;;;;4901642;28;20300;-49
2021/01/04 01:05:14;;;;;;;11.90;7.50;;;27.80;59.00;;;;;;4926028;28;20252;-53
2021/01/04 01:08:07;;;;;;;7.80;7.00;;;27.80;58.80;;;;;;4953810;28;22694;-53
2021/01/04 01:10:39;;;;;;;7.95;7.10;;;27.80;58.90;;;;;;4967015;28;20237;-55
2021/01/04 01:13:35;;;;;;;8.68;7.25;;;27.80;58.70;;;;;;4963769;28;20233;-55
2021/01/04 01:16:16;;;;;;;7.22;6.53;;;27.80;58.80;;;;;;4960231;28;20328;-53
2021/01/04 01:18:49;;;;;;;7.88;7.07;;;27.80;58.80;;;;;;4953142;28;20290;-51
2021/01/04 01:21:20;;;;;;;8.85;7.93;;;27.90;58.90;;;;;;4918915;28;20238;-56
2021/01/04 01:23:51;;;;;;;8.23;7.30;;;27.90;58.80;;;;;;4922695;28;20798;-54
2021/01/04 01:26:59;;;;;;;8.38;7.30;;;27.90;58.80;;;;;;4915930;28;20329;-55
2021/01/04 01:29:50;;;;;;;8.45;7.53;;;27.90;58.90;;;;;;4888944;28;20242;-51
2021/01/04 01:32:41;;;;;;;8.57;7.57;;;28.00;58.80;;;;;;4917445;28;20245;-50
2021/01/04 01:35:32;;;;;;;8.40;7.57;;;28.00;58.80;;;;;;4921821;28;20669;-51
2021/01/04 01:38:30;;;;;;;8.25;7.30;;;28.00;58.80;;;;;;4917024;28;20222;-55
2021/01/04 01:41:39;;;;;;;9.52;7.53;;;28.10;58.70;;;;;;4929487;28;20238;-51
2021/01/04 01:44:14;;;;;;;9.27;7.78;;;28.10;58.60;;;;;;4860543;28;20259;-55
2021/01/04 01:46:47;;;;;;;9.07;7.10;;;28.10;58.50;;;;;;4861062;28;20803;-53
2021/01/04 01:49:37;;;;;;;8.15;7.28;;;28.20;58.60;;;;;;4830858;29;20237;-55
2021/01/04 01:52:23;;;;;;;8.35;7.28;;;28.20;58.60;;;;;;4831766;29;20710;-56
2021/01/04 01:55:14;;;;;;;9.85;7.05;;;28.20;58.60;;;;;;4833537;29;20240;-53
2021/01/04 01:58:09;;;;;;;7.78;6.97;;;28.30;58.60;;;;;;4833382;29;20237;-55
2021/01/04 02:00:41;;;;;;;7.63;6.80;;;28.30;58.40;;;;;;4832161;29;20229;-50
2021/01/04 02:03:15;;;;;;;7.78;7.05;;;28.30;58.30;;;;;;4845242;28;20328;-49
2021/01/04 02:06:07;;;;;;;7.90;6.75;;;28.30;58.30;;;;;;4850506;28;20240;-52
2021/01/04 02:08:40;;;;;;;7.18;6.47;;;28.50;58.70;;;;;;4818677;29;20649;-52
2021/01/04 02:11:16;;;;;;;8.38;6.63;;;28.50;58.50;;;;;;4853532;29;20723;-51
2021/01/04 02:13:54;;;;;;;8.18;6.57;;;28.60;58.40;;;;;;4856106;29;22413;-51
2021/01/04 02:16:28;;;;;;;7.68;6.68;;;28.70;58.40;;;;;;4809697;29;20245;-49
2021/01/04 02:19:10;;;;;;;7.90;5.97;;;28.70;58.00;;;;;;4777465;29;20288;-51
2021/01/04 02:22:25;;;;;;;9.70;6.75;;;28.90;58.00;;;;;;4816469;29;20623;-49
2021/01/04 02:24:57;;;;;;;7.93;6.40;;;29.00;58.10;;;;;;4831884;29;20248;-52
2021/01/04 02:27:29;;;;;;;6.63;5.47;;;29.10;58.00;;;;;;4818254;29;20328;-52
2021/01/04 02:29:59;;;;;;;6.28;5.78;;;29.20;57.90;;;;;;4824337;29;20245;-52
2021/01/04 02:32:30;;;;;;;6.28;5.72;;;29.20;57.60;;;;;;4829212;29;20235;-49
2021/01/04 02:35:01;;;;;;;8.85;7.95;;;29.30;57.70;;;;;;4844728;29;20237;-52
2021/01/04 02:37:31;;;;;;;9.38;6.45;;;29.40;57.30;;;;;;4846938;29;20767;-50
2021/01/04 02:40:04;;;;;;;9.48;8.07;;;29.50;57.10;;;;;;4827009;29;20246;-51
2021/01/04 02:42:36;;;;;;;10.32;8.57;;;29.60;57.10;;;;;;4830294;29;20768;-53
2021/01/04 02:45:09;;;;;;;10.95;8.02;;;29.70;56.80;;;;;;4866182;28;20274;-52
2021/01/04 02:47:58;;;;;;;9.48;7.65;;;29.70;56.40;;;;;;4917774;28;20858;-49
2021/01/04 02:50:44;;;;;;;7.05;6.35;;;29.80;56.40;;;;;;4938459;28;20717;-51
2021/01/04 02:53:39;;;;;;;7.97;6.30;;;30.00;56.30;;;;;;4924182;28;20284;-49
2021/01/04 02:56:19;;;;;;;8.23;7.30;;;30.10;56.00;;;;;;4921306;28;20322;-53
2021/01/04 02:58:58;;;;;;;11.52;8.43;;;30.20;55.90;;;;;;4889071;28;20231;-53
2021/01/04 03:01:34;;;;;;;8.50;5.90;;;30.20;55.80;;;;;;4886450;28;20261;-53
2021/01/04 03:04:05;;;;;;;7.30;6.60;;;30.30;55.70;;;;;;4887724;28;20285;-54
2021/01/04 03:06:40;;;;;;;7.63;6.68;;;30.40;55.50;;;;;;4964835;28;20384;-54
2021/01/04 03:09:11;;;;;;;6.38;5.78;;;30.50;55.00;;;;;;4967105;28;20228;-52
2021/01/04 03:11:42;;;;;;;6.28;5.68;;;30.50;55.20;;;;;;4967158;28;20826;-53
2021/01/04 03:14:18;;;;;;;7.15;6.43;;;30.60;55.10;;;;;;4964026;28;20306;-52
2021/01/04 03:16:54;;;;;;;7.25;6.55;;;30.70;54.60;;;;;;4936003;28;20243;-53
2021/01/04 03:19:25;;;;;;;7.15;5.80;;;30.80;54.60;;;;;;4906441;28;20261;-56
2021/01/04 03:22:07;;;;;;;5.63;5.13;;;30.90;54.80;;;;;;5008359;28;20255;-52
2021/01/04 03:24:37;;;;;;;6.20;5.70;;;30.90;54.30;;;;;;5025017;28;20758;-50
2021/01/04 03:27:11;;;;;;;7.05;6.15;;;31.00;54.60;;;;;;5020840;28;20329;-52
2021/01/04 03:29:42;;;;;;;7.03;6.30;;;31.10;54.50;;;;;;5027718;28;20230;-51
2021/01/04 03:32:12;;;;;;;6.88;6.25;;;31.20;54.20;;;;;;5026451;28;20245;-52
2021/01/04 03:34:43;;;;;;;6.72;6.13;;;31.20;54.00;;;;;;5023045;28;20226;-53
2021/01/04 03:37:13;;;;;;;7.00;6.30;;;31.30;54.00;;;;;;5026802;28;20249;-53
2021/01/04 03:39:44;;;;;;;8.30;6.53;;;31.30;53.70;;;;;;5018391;28;20643;-50
2021/01/04 03:42:16;;;;;;;6.45;5.90;;;31.50;53.70;;;;;;5025677;28;20317;-51
2021/01/04 03:44:46;;;;;;;7.13;6.53;;;31.50;53.80;;;;;;5028067;28;20222;-50
2021/01/04 03:47:18;;;;;;;7.10;6.45;;;31.60;53.70;;;;;;5027790;28;20735;-53
2021/01/04 03:49:49;;;;;;;7.50;6.65;;;31.60;53.50;;;;;;5025071;28;20280;-53
2021/01/04 03:52:19;;;;;;;6.82;6.13;;;31.70;53.00;;;;;;5011556;28;20228;-51
2021/01/04 03:54:50;;;;;;;6.25;5.75;;;31.70;53.20;;;;;;4961404;28;20680;-51
2021/01/04 03:57:22;;;;;;;6.45;5.85;;;31.80;53.30;;;;;;4962420;28;20601;-51
2021/01/04 03:59:52;;;;;;;6.72;5.82;;;31.90;53.20;;;;;;4976885;28;20257;-55
2021/01/04 04:02:22;;;;;;;6.70;6.03;;;31.90;53.70;;;;;;5001323;28;20230;-54
2021/01/04 04:04:53;;;;;;;7.22;6.38;;;32.00;53.10;;;;;;4960640;28;20228;-57
2021/01/04 04:07:23;;;;;;;6.60;6.00;;;32.10;53.50;;;;;;4961674;28;20239;-57
2021/01/04 04:09:54;;;;;;;6.32;5.80;;;32.10;53.00;;;;;;4962700;28;20256;-56
2021/01/04 04:12:25;;;;;;;6.93;6.32;;;32.20;53.10;;;;;;4967503;28;20256;-55
2021/01/04 04:14:56;;;;;;;6.78;6.05;;;32.30;53.00;;;;;;4991438;28;20232;-53
2021/01/04 04:17:26;;;;;;;6.95;5.65;;;32.30;52.80;;;;;;4951071;28;20240;-56
2021/01/04 04:19:57;;;;;;;7.30;6.60;;;32.40;52.70;;;;;;4966292;28;20232;-53
2021/01/04 04:22:28;;;;;;;7.72;7.03;;;32.40;52.30;;;;;;4963342;28;20228;-51
2021/01/04 04:24:59;;;;;;;7.53;6.85;;;32.50;51.80;;;;;;4967299;28;20239;-51
2021/01/04 04:27:31;;;;;;;8.45;6.65;;;32.60;51.60;;;;;;4958208;28;20727;-53
2021/01/04 04:30:03;;;;;;;9.52;7.18;;;32.60;51.50;;;;;;4960215;28;20236;-56
2021/01/04 04:32:33;;;;;;;9.90;6.82;;;32.60;51.50;;;;;;4961342;28;20651;-51
2021/01/04 04:35:04;;;;;;;7.28;6.47;;;32.60;51.60;;;;;;4961238;28;20252;-51
2021/01/04 04:37:34;;;;;;;7.53;6.32;;;32.70;51.80;;;;;;4963712;28;20252;-55
2021/01/04 04:40:05;;;;;;;7.70;7.00;;;32.70;51.60;;;;;;4961883;28;20332;-54
2021/01/04 04:42:38;;;;;;;7.03;6.10;;;32.80;51.70;;;;;;5046232;28;20252;-51
2021/01/04 04:45:11;;;;;;;7.18;6.50;;;32.80;51.50;;;;;;5042131;28;20701;-52
2021/01/04 04:48:20;;;;;;;6.90;6.25;;;32.80;51.40;;;;;;5041472;28;20233;-52
2021/01/04 04:51:02;;;;;;;6.78;6.18;;;32.90;51.50;;;;;;5036254;28;20237;-54
2021/01/04 04:54:03;;;;;;;7.05;6.35;;;33.00;51.50;;;;;;5043271;28;20230;-52
2021/01/04 04:56:52;;;;;;;7.53;6.90;;;33.00;51.60;;;;;;5039426;28;20237;-53
2021/01/04 04:59:30;;;;;;;7.93;7.10;;;33.00;51.10;;;;;;4977889;28;20668;-55
2021/01/04 05:02:04;;;;;;;7.47;6.25;;;33.10;51.30;;;;;;4985654;28;20314;-56
2021/01/04 05:05:03;;;;;;;8.20;7.13;;;33.10;51.20;;;;;;4973942;28;20232;-56
2021/01/04 05:07:46;;;;;;;7.75;7.05;;;33.20;51.10;;;;;;4974357;28;20231;-51
2021/01/04 05:10:19;;;;;;;8.63;7.22;;;33.20;51.00;;;;;;4975520;28;20248;-53
2021/01/04 05:12:58;;;;;;;7.55;6.82;;;33.20;51.10;;;;;;4972114;28;20409;-55
2021/01/04 05:15:35;;;;;;;9.45;8.35;;;33.30;51.30;;;;;;4927877;28;20648;-53
2021/01/04 05:18:41;;;;;;;9.30;8.30;;;33.30;50.90;;;;;;4924171;28;20238;-56
2021/01/04 05:21:49;;;;;;;9.05;7.22;;;33.40;51.00;;;;;;4914505;29;20237;-50
2021/01/04 05:24:56;;;;;;;6.82;6.22;;;33.40;50.80;;;;;;4976399;28;20236;-53
2021/01/04 05:28:19;;;;;;;8.52;7.72;;;33.50;51.00;;;;;;4960239;28;20301;-53
2021/01/04 05:31:03;;;;;;;8.52;6.20;;;33.60;50.80;;;;;;4985679;28;20224;-56
2021/01/04 05:33:55;;;;;;;9.40;8.02;;;33.60;50.50;;;;;;4985148;28;20231;-53
2021/01/04 05:37:05;;;;;;;8.45;6.82;;;33.70;50.50;;;;;;5000382;28;20226;-55
2021/01/04 05:39:46;;;;;;;8.20;7.40;;;33.70;50.30;;;;;;4983747;28;20315;-56
2021/01/04 05:42:38;;;;;;;8.65;7.85;;;33.70;50.20;;;;;;4985052;28;20231;-50
2021/01/04 05:45:11;;;;;;;9.15;8.25;;;33.80;50.20;;;;;;4965691;28;20410;-52
2021/01/04 05:47:47;;;;;;;8.98;8.18;;;33.70;50.10;;;;;;4965797;28;20267;-56
2021/01/04 05:50:29;;;;;;;8.18;7.45;;;33.80;50.20;;;;;;4964447;28;20739;-51
2021/01/04 05:52:59;;;;;;;9.13;8.05;;;33.80;50.20;;;;;;4967267;28;20322;-53
2021/01/04 05:55:30;;;;;;;7.95;7.20;;;33.80;49.90;;;;;;4965608;28;20295;-55
2021/01/04 05:58:14;;;;;;;8.25;7.45;;;33.80;49.90;;;;;;4967604;28;20235;-56
2021/01/04 06:00:44;;;;;;;8.18;7.05;;;33.90;50.10;;;;;;4951209;28;20325;-52
2021/01/04 06:03:18;;;;;;;7.30;6.68;;;33.90;50.50;;;;;;4904199;28;20238;-55
2021/01/04 06:05:49;;;;;;;11.50;9.80;;;34.00;50.50;;;;;;4921351;28;20235;-55
2021/01/04 06:08:23;;;;;;;16.00;13.55;;;34.00;51.30;;;;;;4913053;28;20238;-51
2021/01/04 06:10:57;;;;;;;13.07;11.73;;;34.00;52.00;;;;;;4974106;28;20240;-51
2021/01/04 06:13:27;;;;;;;12.35;11.10;;;34.00;52.30;;;;;;4990879;28;20671;-52
2021/01/04 06:16:06;;;;;;;13.70;12.27;;;34.00;52.60;;;;;;4969188;28;20355;-52
2021/01/04 06:18:41;;;;;;;12.00;10.82;;;33.90;52.90;;;;;;5002085;28;20375;-51
2021/01/04 06:21:38;;;;;;;13.68;11.43;;;33.80;52.90;;;;;;5003751;28;20230;-50
2021/01/04 06:24:09;;;;;;;14.35;12.15;;;33.80;52.90;;;;;;4995015;28;20263;-55
2021/01/04 06:26:42;;;;;;;15.60;12.50;;;33.70;52.80;;;;;;5002849;28;20231;-50
2021/01/04 06:29:12;;;;;;;12.80;11.55;;;33.60;53.20;;;;;;4963094;28;20228;-52
2021/01/04 06:31:44;;;;;;;12.73;11.43;;;33.50;53.40;;;;;;4961624;28;20722;-49
2021/01/04 06:34:21;;;;;;;14.27;12.52;;;33.50;53.50;;;;;;4962703;28;20272;-52
2021/01/04 06:36:53;;;;;;;12.80;11.50;;;33.40;53.50;;;;;;4964236;28;20236;-50
2021/01/04 06:39:31;;;;;;;12.10;10.88;;;33.40;53.50;;;;;;4962461;28;20319;-53
2021/01/04 06:42:17;;;;;;;13.50;10.32;;;33.30;53.70;;;;;;4960539;28;20232;-53
2021/01/04 06:45:02;;;;;;;12.40;11.10;;;33.30;54.10;;;;;;4959176;28;20680;-51
2021/01/04 06:47:49;;;;;;;11.32;10.07;;;33.30;54.30;;;;;;4925665;29;20252;-52
2021/01/04 06:50:27;;;;;;;13.20;10.55;;;33.30;54.20;;;;;;4903962;29;20242;-55
2021/01/04 06:53:26;;;;;;;14.55;11.20;;;33.30;54.00;;;;;;4913364;28;20240;-50
2021/01/04 06:56:32;;;;;;;12.73;11.30;;;33.30;54.00;;;;;;4982227;28;20282;-52
2021/01/04 06:59:37;;;;;;;14.38;11.55;;;33.30;54.20;;;;;;4980776;28;20233;-55
2021/01/04 07:02:29;;;;;;;10.18;9.13;;;33.20;54.60;;;;;;4983575;28;20243;-52
2021/01/04 07:05:25;;;;;;;12.02;10.77;;;33.20;54.80;;;;;;4912518;29;20226;-51
2021/01/04 07:08:03;;;;;;;11.18;10.07;;;33.20;54.70;;;;;;4904303;29;20245;-50
2021/01/04 07:10:54;;;;;;;10.43;9.43;;;33.20;54.50;;;;;;4874353;29;20231;-50
2021/01/04 07:13:39;;;;;;;11.10;9.07;;;33.20;54.90;;;;;;4897123;29;20313;-50
2021/01/04 07:16:43;;;;;;;11.35;10.07;;;33.20;55.40;;;;;;4837661;29;20260;-54
2021/01/04 07:19:21;;;;;;;10.30;9.25;;;33.20;55.00;;;;;;4841510;29;20244;-55
2021/01/04 07:21:53;;;;;;;11.02;9.93;;;33.20;55.10;;;;;;4894520;29;21020;-50
2021/01/04 07:24:37;;;;;;;10.13;9.15;;;33.30;54.90;;;;;;4950426;29;20347;-50
2021/01/04 07:27:42;;;;;;;13.50;10.15;;;33.20;55.00;;;;;;4917810;29;20377;-52
2021/01/04 07:30:18;;;;;;;11.63;10.27;;;33.30;55.10;;;;;;4920521;29;20667;-52
2021/01/04 07:32:57;;;;;;;12.65;9.70;;;33.20;54.80;;;;;;4929846;29;20619;-54
2021/01/04 07:35:31;;;;;;;10.13;9.18;;;33.20;55.20;;;;;;4926406;29;20257;-55
2021/01/04 07:38:20;;;;;;;10.77;9.77;;;33.20;55.40;;;;;;4927281;29;21012;-55
2021/01/04 07:41:01;;;;;;;11.35;9.43;;;33.20;55.40;;;;;;4927833;29;20596;-52
2021/01/04 07:44:07;;;;;;;10.65;9.52;;;33.20;55.10;;;;;;4937551;29;20293;-49
2021/01/04 07:47:16;;;;;;;9.57;8.38;;;33.20;55.20;;;;;;4919105;28;20780;-52
2021/01/04 07:50:12;;;;;;;8.85;7.95;;;33.20;54.90;;;;;;4849966;29;20227;-52
2021/01/04 07:53:08;;;;;;;10.50;9.20;;;33.10;54.80;;;;;;4893443;28;20357;-49
2021/01/04 07:55:59;;;;;;;10.57;8.45;;;33.00;55.20;;;;;;4886801;28;20314;-49
2021/01/04 07:59:05;;;;;;;9.00;8.10;;;33.00;55.00;;;;;;4886247;28;20234;-52
2021/01/04 08:02:19;;;;;;;9.90;8.90;;;33.00;55.00;;;;;;4920482;28;20240;-50
2021/01/04 08:05:00;;;;;;;9.07;8.18;;;32.90;54.90;;;;;;4966978;28;20233;-55
2021/01/04 08:07:56;;;;;;;9.35;8.55;;;32.80;55.40;;;;;;4944820;28;20248;-51
2021/01/04 08:10:51;;;;;;;8.70;7.72;;;32.80;55.80;;;;;;4955597;28;20233;-52
2021/01/04 08:14:15;;;;;;;9.23;8.30;;;32.80;55.80;;;;;;4962807;28;20232;-49
2021/01/04 08:16:48;;;;;;;9.15;8.32;;;32.80;56.10;;;;;;4908267;28;20716;-51
2021/01/04 08:19:19;;;;;;;9.48;8.55;;;32.70;56.10;;;;;;4927457;28;20234;-52
2021/01/04 08:21:55;;;;;;;8.75;7.93;;;32.60;56.20;;;;;;4928621;28;20248;-51
2021/01/04 08:24:28;;;;;;;10.13;8.50;;;32.60;56.40;;;;;;4910196;29;20261;-56
2021/01/04 08:27:21;;;;;;;8.85;7.85;;;32.60;56.50;;;;;;4967721;28;20319;-52
2021/01/04 08:29:59;;;;;;;11.27;7.90;;;32.60;56.60;;;;;;4877558;29;20240;-53
2021/01/04 08:32:33;;;;;;;10.27;9.27;;;32.60;56.70;;;;;;4876664;29;20284;-55
2021/01/04 08:35:11;;;;;;;8.82;8.07;;;32.60;56.90;;;;;;4874147;29;20298;-54
2021/01/04 08:37:43;;;;;;;9.27;8.45;;;32.70;56.70;;;;;;4875728;29;20735;-55
2021/01/04 08:40:23;;;;;;;13.52;9.18;;;32.80;56.80;;;;;;4881882;29;20763;-51
2021/01/04 08:43:05;;;;;;;10.73;8.63;;;32.80;56.60;;;;;;4818295;29;20712;-53
2021/01/04 08:45:37;;;;;;;9.20;8.30;;;32.90;56.70;;;;;;4816069;29;20257;-55
2021/01/04 08:48:15;;;;;;;9.65;8.73;;;32.80;56.40;;;;;;4819749;29;20244;-54
2021/01/04 08:50:46;;;;;;;9.95;8.95;;;33.00;56.40;;;;;;4829951;29;20328;-56
2021/01/04 08:53:20;;;;;;;8.27;7.47;;;33.00;56.60;;;;;;4841981;29;20778;-54
2021/01/04 08:55:52;;;;;;;13.57;8.98;;;33.00;56.50;;;;;;4887399;28;20231;-51
2021/01/04 08:58:38;;;;;;;10.25;9.25;;;33.10;56.60;;;;;;4888430;28;20326;-55
2021/01/04 09:01:18;;;;;;;11.05;9.85;;;33.00;56.60;;;;;;4870185;28;20616;-55
2021/01/04 09:03:48;;;;;;;10.20;9.30;;;33.00;56.30;;;;;;4870329;28;20331;-55
2021/01/04 09:06:30;;;;;;;10.73;9.63;;;33.00;56.60;;;;;;4869734;28;20343;-52
2021/01/04 09:09:12;;;;;;;13.38;11.95;;;32.90;56.70;;;;;;4870211;29;20282;-53
2021/01/04 09:11:46;;;;;;;12.98;11.05;;;32.90;57.10;;;;;;4910214;29;20234;-54
2021/01/04 09:14:20;;;;;;;11.02;10.02;;;32.80;57.20;;;;;;4895842;29;20235;-54
2021/01/04 09:16:51;;;;;;;10.55;9.55;;;32.80;57.40;;;;;;4888817;29;20230;-54
2021/01/04 09:19:23;;;;;;;12.70;11.52;;;32.80;57.30;;;;;;4867706;29;20768;-52
2021/01/04 09:21:54;;;;;;;11.85;10.73;;;32.80;57.40;;;;;;4853503;29;20304;-55
2021/01/04 09:24:37;;;;;;;11.38;10.35;;;32.70;57.70;;;;;;4833827;29;20286;-54
2021/01/04 09:27:20;;;;;;;10.85;9.57;;;32.70;58.30;;;;;;4835770;29;20725;-54
2021/01/04 09:29:54;;;;;;;10.20;9.30;;;32.60;58.40;;;;;;4785733;29;20240;-55
2021/01/04 09:32:35;;;;;;;10.32;9.32;;;32.60;58.20;;;;;;4756446;29;20573;-55
2021/01/04 09:35:07;;;;;;;10.20;9.07;;;32.60;58.20;;;;;;4762749;29;20244;-54
2021/01/04 09:37:51;;;;;;;10.27;8.65;;;32.60;58.10;;;;;;4799050;29;20238;-49
2021/01/04 09:40:21;;;;;;;10.57;8.85;;;32.60;58.00;;;;;;4798317;29;20325;-55
2021/01/04 09:42:52;;;;;;;8.75;7.95;;;32.60;58.00;;;;;;4799045;29;20617;-50
2021/01/04 09:45:25;;;;;;;10.02;9.05;;;32.50;58.00;;;;;;4815014;29;20730;-54
2021/01/04 09:47:56;;;;;;;9.93;8.77;;;32.50;58.30;;;;;;4871783;29;20319;-54
2021/01/04 09:50:30;;;;;;;8.00;7.07;;;32.50;58.30;;;;;;4849142;28;20315;-55
2021/01/04 09:53:01;;;;;;;9.15;8.25;;;32.50;58.30;;;;;;4872884;28;20242;-50
2021/01/04 09:55:35;;;;;;;8.23;7.47;;;32.60;58.50;;;;;;4901228;28;20314;-52
2021/01/04 09:58:05;;;;;;;9.82;8.93;;;32.60;58.40;;;;;;4925675;29;20265;-55
2021/01/04 10:00:38;;;;;;;9.95;8.95;;;32.60;58.20;;;;;;4928082;29;20226;-51
2021/01/04 10:03:10;;;;;;;11.15;8.48;;;32.60;58.10;;;;;;4925501;28;20238;-50
2021/01/04 10:05:41;;;;;;;9.05;8.25;;;32.60;58.80;;;;;;4924939;28;20253;-48
2021/01/04 10:08:13;;;;;;;9.77;8.88;;;32.50;58.30;;;;;;4926325;28;20376;-50
2021/01/04 10:10:54;;;;;;;9.52;8.65;;;32.50;58.50;;;;;;4931940;28;20241;-51
2021/01/04 10:13:25;;;;;;;9.65;8.75;;;32.40;59.10;;;;;;4926359;28;20724;-49
2021/01/04 10:15:57;;;;;;;9.13;8.23;;;32.30;58.80;;;;;;4926474;29;20275;-50
2021/01/04 10:18:44;;;;;;;8.50;7.65;;;32.30;59.20;;;;;;4982034;28;20248;-49
2021/01/04 10:21:16;;;;;;;8.88;7.97;;;32.20;59.20;;;;;;4945168;28;20227;-52
2021/01/04 10:23:50;;;;;;;8.65;7.85;;;32.20;59.40;;;;;;4985083;28;20682;-49
2021/01/04 10:26:41;;;;;;;8.15;7.22;;;32.10;59.50;;;;;;4990218;28;20242;-50
2021/01/04 10:29:12;;;;;;;9.23;7.28;;;32.20;59.60;;;;;;4986713;28;20251;-53
2021/01/04 10:31:43;;;;;;;7.25;6.60;;;32.10;59.80;;;;;;4969063;28;20232;-49
2021/01/04 10:34:16;;;;;;;8.73;7.10;;;32.10;59.70;;;;;;4971265;28;20233;-50
2021/01/04 10:36:53;;;;;;;8.07;7.38;;;32.20;59.80;;;;;;4971983;28;20232;-49
2021/01/04 10:39:32;;;;;;;7.50;6.75;;;32.20;59.70;;;;;;4968347;28;20262;-49
2021/01/04 10:42:07;;;;;;;11.55;7.20;;;32.30;59.50;;;;;;4965185;28;20263;-48
2021/01/04 10:44:38;;;;;;;8.43;7.65;;;32.30;59.70;;;;;;4910971;28;20288;-49
2021/01/04 10:47:25;;;;;;;8.40;7.60;;;32.30;59.60;;;;;;4949565;28;20701;-50
2021/01/04 10:50:06;;;;;;;8.30;7.03;;;32.30;59.80;;;;;;4945323;28;20241;-49
2021/01/04 10:52:37;;;;;;;8.75;8.02;;;32.20;59.90;;;;;;5008387;28;20273;-50
2021/01/04 10:55:20;;;;;;;9.38;8.15;;;32.20;60.10;;;;;;5009800;28;20227;-49
2021/01/04 10:57:53;;;;;;;9.35;8.50;;;32.10;60.60;;;;;;5004515;28;20249;-49
2021/01/04 11:00:26;;;;;;;10.07;8.88;;;32.10;60.50;;;;;;5007063;28;20227;-55
2021/01/04 11:03:06;;;;;;;11.32;9.15;;;32.00;60.70;;;;;;4972755;28;20251;-50
2021/01/04 11:05:38;;;;;;;8.63;7.88;;;31.90;61.20;;;;;;4986974;28;20751;-52
2021/01/04 11:08:14;;;;;;;8.30;7.50;;;31.90;61.00;;;;;;4989644;28;20251;-48
2021/01/04 11:10:54;;;;;;;9.63;8.73;;;31.80;61.00;;;;;;4983610;28;20231;-49
2021/01/04 11:13:32;;;;;;;12.50;10.18;;;31.80;61.50;;;;;;4983818;28;20243;-48
2021/01/04 11:16:13;;;;;;;9.93;9.02;;;31.80;61.60;;;;;;4985508;28;20231;-51
2021/01/04 11:18:53;;;;;;;9.45;8.45;;;31.70;61.60;;;;;;4988475;28;20661;-55
2021/01/04 11:21:36;;;;;;;10.77;9.68;;;31.70;61.70;;;;;;4984455;28;20235;-54
2021/01/04 11:24:07;;;;;;;13.82;11.00;;;31.70;62.40;;;;;;4939541;28;20765;-53
2021/01/04 11:26:37;;;;;;;11.35;10.25;;;31.60;61.60;;;;;;4927062;28;20373;-51
2021/01/04 11:29:08;;;;;;;10.52;9.52;;;31.60;61.70;;;;;;4943599;28;20234;-52
2021/01/04 11:31:38;;;;;;;9.05;8.15;;;31.60;61.80;;;;;;4923947;28;20245;-52
2021/01/04 11:34:11;;;;;;;9.32;8.43;;;31.60;62.00;;;;;;4964748;28;20304;-49
2021/01/04 11:36:42;;;;;;;8.95;8.05;;;31.60;62.30;;;;;;4966542;28;20247;-52
2021/01/04 11:39:14;;;;;;;9.07;7.10;;;31.60;62.40;;;;;;4992036;28;20596;-52
2021/01/04 11:41:46;;;;;;;7.45;6.68;;;31.60;62.40;;;;;;4967525;28;20232;-52
2021/01/04 11:44:16;;;;;;;7.50;6.78;;;31.60;62.50;;;;;;4990199;28;21917;-53
2021/01/04 11:46:47;;;;;;;7.85;7.05;;;31.60;62.40;;;;;;4969249;28;20294;-51
2021/01/04 11:49:19;;;;;;;8.50;7.70;;;31.50;62.50;;;;;;4991561;28;20362;-52
2021/01/04 11:51:51;;;;;;;7.88;7.18;;;31.50;62.70;;;;;;4968242;28;20286;-49
2021/01/04 11:54:22;;;;;;;7.35;6.65;;;31.50;62.60;;;;;;4968555;28;20740;-50
2021/01/04 11:56:53;;;;;;;7.75;7.05;;;31.50;62.60;;;;;;4963274;28;20264;-50
2021/01/04 11:59:24;;;;;;;7.85;7.05;;;31.40;62.60;;;;;;4966960;28;20229;-54
2021/01/04 12:01:55;;;;;;;8.85;7.97;;;31.40;62.60;;;;;;4967676;28;20319;-54
2021/01/04 12:04:27;;;;;;;11.90;8.25;;;31.40;62.70;;;;;;4971142;28;20362;-50
2021/01/04 12:07:01;;;;;;;8.75;7.85;;;31.40;62.80;;;;;;4963519;28;20325;-52
2021/01/04 12:09:31;;;;;;;12.50;8.57;;;31.30;62.60;;;;;;4965303;28;20286;-51
2021/01/04 12:12:02;;;;;;;11.35;9.00;;;31.30;62.80;;;;;;4966896;28;20640;-55
2021/01/04 12:14:33;;;;;;;9.95;8.35;;;31.30;62.90;;;;;;4964660;28;20232;-53
2021/01/04 12:17:04;;;;;;;8.10;7.30;;;31.30;62.90;;;;;;4963203;28;20228;-53
2021/01/04 12:19:37;;;;;;;9.57;8.32;;;31.20;62.90;;;;;;4964843;28;20241;-52
2021/01/04 12:22:09;;;;;;;9.63;8.25;;;31.20;63.20;;;;;;4954715;28;20227;-55
2021/01/04 12:24:39;;;;;;;11.88;10.68;;;31.20;63.20;;;;;;4988802;28;20240;-55
2021/01/04 12:27:12;;;;;;;11.27;10.07;;;31.10;63.10;;;;;;4960045;28;20239;-51
2021/01/04 12:29:45;;;;;;;9.38;8.48;;;31.10;63.20;;;;;;4966102;28;20228;-55
2021/01/04 12:32:15;;;;;;;11.27;8.77;;;31.10;63.40;;;;;;4969533;28;20265;-52
2021/01/04 12:34:48;;;;;;;10.10;8.57;;;31.10;63.50;;;;;;4984731;28;20727;-54
2021/01/04 12:37:18;;;;;;;9.80;8.77;;;31.00;63.80;;;;;;4969733;28;20315;-52
2021/01/04 12:39:49;;;;;;;9.82;8.50;;;31.00;63.80;;;;;;4965873;28;20311;-56
2021/01/04 12:42:19;;;;;;;10.88;8.55;;;31.00;63.90;;;;;;4962501;28;20732;-56
2021/01/04 12:44:51;;;;;;;10.50;8.40;;;30.90;63.90;;;;;;4966113;28;20236;-55
2021/01/04 12:47:21;;;;;;;10.75;8.52;;;30.90;64.10;;;;;;4966077;28;20268;-50
2021/01/04 12:49:53;;;;;;;9.48;8.50;;;30.90;64.10;;;;;;4969154;28;20243;-51
2021/01/04 12:52:23;;;;;;;9.10;8.23;;;30.90;64.40;;;;;;4964430;28;20235;-52
2021/01/04 12:54:56;;;;;;;11.05;9.85;;;30.80;64.40;;;;;;4989682;28;20229;-53
2021/01/04 12:57:27;;;;;;;15.57;13.15;;;30.80;64.70;;;;;;4965679;28;20233;-49
2021/01/04 12:59:57;;;;;;;17.65;13.57;;;30.80;64.70;;;;;;4967900;28;20712;-52
2021/01/04 13:02:28;;;;;;;13.40;12.00;;;30.70;64.30;;;;;;4964466;28;20239;-50
2021/01/04 13:05:00;;;;;;;13.25;11.40;;;30.70;64.00;;;;;;4967333;28;20241;-50
2021/01/04 13:07:30;;;;;;;10.27;9.27;;;30.60;63.50;;;;;;4965979;28;20232;-50
2021/01/04 13:10:01;;;;;;;9.95;8.93;;;30.60;63.30;;;;;;4965062;28;20710;-50
2021/01/04 13:12:32;;;;;;;9.95;8.77;;;30.60;63.00;;;;;;4966935;28;20233;-49
2021/01/04 13:15:02;;;;;;;12.02;10.18;;;30.50;62.60;;;;;;4961915;28;20240;-49
2021/01/04 13:17:33;;;;;;;11.70;10.00;;;30.50;62.50;;;;;;4966138;28;20229;-50
2021/01/04 13:20:05;;;;;;;12.48;9.93;;;30.50;62.50;;;;;;4962235;28;20229;-50
2021/01/04 13:22:37;;;;;;;11.02;8.02;;;30.50;62.60;;;;;;4968533;28;20549;-53
2021/01/04 13:25:08;;;;;;;9.30;8.30;;;30.50;62.20;;;;;;4967440;28;20307;-49
2021/01/04 13:27:39;;;;;;;9.18;8.30;;;30.50;62.00;;;;;;4965619;28;20316;-52
2021/01/04 13:30:10;;;;;;;8.70;7.80;;;30.50;61.80;;;;;;4967423;28;20235;-50
2021/01/04 13:32:41;;;;;;;8.27;7.47;;;30.50;61.40;;;;;;4959019;28;20591;-48
2021/01/04 13:35:14;;;;;;;8.70;7.80;;;30.40;61.20;;;;;;4951997;28;20242;-52
2021/01/04 13:37:46;;;;;;;8.20;7.18;;;30.40;61.00;;;;;;4960553;28;20252;-50
2021/01/04 13:40:17;;;;;;;9.48;8.07;;;30.40;61.00;;;;;;5015761;28;20781;-50